sensor_id;sensor_type;location;lat;lon;timestamp;P1;durP1;ratioP1;P2;durP2;ratioP2
62990;SDS011;49084;48.204;16.202;2022-08-21T00:00:26;6.72;;;5.97;;
62990;SDS011;49084;48.204;16.202;2022-08-21T00:02:58;8.23;;;6.82;;
62990;SDS011;49084;48.204;16.202;2022-08-21T00:05:26;6.03;;;5.40;;
62990;SDS011;49084;48.204;16.202;2022-08-21T00:07:52;6.15;;;5.55;;
62990;SDS011;49084;48.204;16.202;2022-08-21T00:10:18;6.53;;;5.75;;
62990;SDS011;49084;48.204;16.202;2022-08-21T00:12:44;5.95;;;5.45;;
62990;SDS011;49084;48.204;16.202;2022-08-21T00:15:13;6.10;;;5.50;;
62990;SDS011;49084;48.204;16.202;2022-08-21T00:17:42;6.57;;;5.93;;
62990;SDS011;49084;48.204;16.202;2022-08-21T00:20:08;6.53;;;5.93;;
62990;SDS011;49084;48.204;16.202;2022-08-21T00:22:36;6.45;;;5.85;;
62990;SDS011;49084;48.204;16.202;2022-08-21T00:25:03;5.95;;;5.45;;
62990;SDS011;49084;48.204;16.202;2022-08-21T00:27:30;6.43;;;5.82;;
62990;SDS011;49084;48.204;16.202;2022-08-21T00:29:56;6.93;;;5.88;;
62990;SDS011;49084;48.204;16.202;2022-08-21T00:32:22;6.82;;;6.20;;
62990;SDS011;49084;48.204;16.202;2022-08-21T00:34:49;6.53;;;5.85;;
62990;SDS011;49084;48.204;16.202;2022-08-21T00:37:16;6.65;;;6.05;;
62990;SDS011;49084;48.204;16.202;2022-08-21T00:39:42;7.28;;;6.57;;
62990;SDS011;49084;48.204;16.202;2022-08-21T00:42:08;7.03;;;6.32;;
62990;SDS011;49084;48.204;16.202;2022-08-21T00:44:34;7.57;;;6.40;;
62990;SDS011;49084;48.204;16.202;2022-08-21T00:47:00;7.40;;;6.28;;
62990;SDS011;49084;48.204;16.202;2022-08-21T00:49:26;7.57;;;6.20;;
62990;SDS011;49084;48.204;16.202;2022-08-21T00:51:53;6.60;;;5.90;;
62990;SDS011;49084;48.204;16.202;2022-08-21T00:54:24;7.63;;;5.88;;
62990;SDS011;49084;48.204;16.202;2022-08-21T00:56:53;6.95;;;5.88;;
62990;SDS011;49084;48.204;16.202;2022-08-21T00:59:21;8.95;;;7.05;;
62990;SDS011;49084;48.204;16.202;2022-08-21T01:01:49;7.63;;;6.78;;
62990;SDS011;49084;48.204;16.202;2022-08-21T01:04:15;9.93;;;6.63;;
62990;SDS011;49084;48.204;16.202;2022-08-21T01:06:42;6.97;;;6.15;;
62990;SDS011;49084;48.204;16.202;2022-08-21T01:09:08;6.93;;;6.30;;
62990;SDS011;49084;48.204;16.202;2022-08-21T01:11:34;7.40;;;6.15;;
62990;SDS011;49084;48.204;16.202;2022-08-21T01:14:00;7.05;;;6.35;;
62990;SDS011;49084;48.204;16.202;2022-08-21T01:16:27;8.32;;;6.65;;
62990;SDS011;49084;48.204;16.202;2022-08-21T01:18:54;7.18;;;6.55;;
62990;SDS011;49084;48.204;16.202;2022-08-21T01:21:21;8.65;;;7.75;;
62990;SDS011;49084;48.204;16.202;2022-08-21T01:23:50;8.88;;;7.43;;
62990;SDS011;49084;48.204;16.202;2022-08-21T01:26:19;8.07;;;7.05;;
62990;SDS011;49084;48.204;16.202;2022-08-21T01:31:55;8.73;;;7.87;;
62990;SDS011;49084;48.204;16.202;2022-08-21T01:34:22;9.45;;;7.72;;
62990;SDS011;49084;48.204;16.202;2022-08-21T01:36:48;9.30;;;7.60;;
62990;SDS011;49084;48.204;16.202;2022-08-21T01:39:14;8.55;;;7.50;;
62990;SDS011;49084;48.204;16.202;2022-08-21T01:41:40;9.65;;;8.52;;
62990;SDS011;49084;48.204;16.202;2022-08-21T01:44:06;9.40;;;8.40;;
62990;SDS011;49084;48.204;16.202;2022-08-21T01:46:32;11.48;;;8.68;;
62990;SDS011;49084;48.204;16.202;2022-08-21T01:48:58;10.43;;;9.35;;
62990;SDS011;49084;48.204;16.202;2022-08-21T01:51:23;12.45;;;9.82;;
62990;SDS011;49084;48.204;16.202;2022-08-21T01:53:49;11.52;;;9.93;;
62990;SDS011;49084;48.204;16.202;2022-08-21T01:56:15;13.00;;;10.77;;
62990;SDS011;49084;48.204;16.202;2022-08-21T01:58:43;13.55;;;11.05;;
62990;SDS011;49084;48.204;16.202;2022-08-21T02:01:11;14.95;;;11.02;;
62990;SDS011;49084;48.204;16.202;2022-08-21T02:03:37;14.40;;;10.60;;
62990;SDS011;49084;48.204;16.202;2022-08-21T02:06:03;12.65;;;10.57;;
62990;SDS011;49084;48.204;16.202;2022-08-21T02:08:30;11.30;;;9.63;;
62990;SDS011;49084;48.204;16.202;2022-08-21T02:10:56;11.45;;;9.20;;
62990;SDS011;49084;48.204;16.202;2022-08-21T02:13:21;9.80;;;8.55;;
62990;SDS011;49084;48.204;16.202;2022-08-21T02:15:47;9.75;;;8.75;;
62990;SDS011;49084;48.204;16.202;2022-08-21T02:18:13;12.05;;;9.32;;
62990;SDS011;49084;48.204;16.202;2022-08-21T02:20:40;10.80;;;9.63;;
62990;SDS011;49084;48.204;16.202;2022-08-21T02:23:08;13.20;;;10.38;;
62990;SDS011;49084;48.204;16.202;2022-08-21T02:25:35;13.40;;;11.45;;
62990;SDS011;49084;48.204;16.202;2022-08-21T02:28:02;14.35;;;11.55;;
62990;SDS011;49084;48.204;16.202;2022-08-21T02:30:34;14.80;;;12.07;;
62990;SDS011;49084;48.204;16.202;2022-08-21T02:33:04;15.32;;;12.65;;
62990;SDS011;49084;48.204;16.202;2022-08-21T02:35:30;18.08;;;13.57;;
62990;SDS011;49084;48.204;16.202;2022-08-21T02:37:57;17.55;;;13.38;;
62990;SDS011;49084;48.204;16.202;2022-08-21T02:40:29;16.83;;;13.65;;
62990;SDS011;49084;48.204;16.202;2022-08-21T02:42:58;16.25;;;13.27;;
62990;SDS011;49084;48.204;16.202;2022-08-21T02:45:24;19.27;;;14.90;;
62990;SDS011;49084;48.204;16.202;2022-08-21T02:47:51;16.98;;;13.93;;
62990;SDS011;49084;48.204;16.202;2022-08-21T02:50:20;15.70;;;12.57;;
62990;SDS011;49084;48.204;16.202;2022-08-21T02:52:51;15.13;;;12.13;;
62990;SDS011;49084;48.204;16.202;2022-08-21T02:55:18;16.48;;;12.70;;
62990;SDS011;49084;48.204;16.202;2022-08-21T02:57:45;13.68;;;11.15;;
62990;SDS011;49084;48.204;16.202;2022-08-21T03:00:11;13.70;;;11.15;;
62990;SDS011;49084;48.204;16.202;2022-08-21T03:02:38;13.48;;;10.05;;
62990;SDS011;49084;48.204;16.202;2022-08-21T03:05:05;11.98;;;10.25;;
62990;SDS011;49084;48.204;16.202;2022-08-21T03:07:33;12.40;;;10.30;;
62990;SDS011;49084;48.204;16.202;2022-08-21T03:09:59;10.55;;;9.45;;
62990;SDS011;49084;48.204;16.202;2022-08-21T03:12:25;12.18;;;9.68;;
62990;SDS011;49084;48.204;16.202;2022-08-21T03:14:50;11.70;;;9.68;;
62990;SDS011;49084;48.204;16.202;2022-08-21T03:17:16;12.38;;;9.70;;
62990;SDS011;49084;48.204;16.202;2022-08-21T03:19:42;12.27;;;10.27;;
62990;SDS011;49084;48.204;16.202;2022-08-21T03:22:07;10.55;;;8.30;;
62990;SDS011;49084;48.204;16.202;2022-08-21T03:24:33;9.88;;;8.88;;
62990;SDS011;49084;48.204;16.202;2022-08-21T03:26:58;11.10;;;8.18;;
62990;SDS011;49084;48.204;16.202;2022-08-21T03:29:24;7.97;;;7.18;;
62990;SDS011;49084;48.204;16.202;2022-08-21T03:31:50;7.72;;;6.85;;
62990;SDS011;49084;48.204;16.202;2022-08-21T03:34:18;7.05;;;6.35;;
62990;SDS011;49084;48.204;16.202;2022-08-21T03:36:44;7.10;;;6.40;;
62990;SDS011;49084;48.204;16.202;2022-08-21T03:39:09;5.63;;;5.13;;
62990;SDS011;49084;48.204;16.202;2022-08-21T03:41:35;6.70;;;5.70;;
62990;SDS011;49084;48.204;16.202;2022-08-21T03:44:01;6.00;;;5.40;;
62990;SDS011;49084;48.204;16.202;2022-08-21T03:46:26;4.60;;;4.20;;
62990;SDS011;49084;48.204;16.202;2022-08-21T03:48:52;4.68;;;4.18;;
62990;SDS011;49084;48.204;16.202;2022-08-21T03:51:18;5.75;;;4.97;;
62990;SDS011;49084;48.204;16.202;2022-08-21T03:53:44;4.70;;;4.03;;
62990;SDS011;49084;48.204;16.202;2022-08-21T03:56:10;5.50;;;4.50;;
62990;SDS011;49084;48.204;16.202;2022-08-21T03:58:36;5.28;;;4.75;;
62990;SDS011;49084;48.204;16.202;2022-08-21T04:01:03;5.00;;;4.57;;
62990;SDS011;49084;48.204;16.202;2022-08-21T04:03:31;5.15;;;4.75;;
62990;SDS011;49084;48.204;16.202;2022-08-21T04:05:58;6.05;;;4.13;;
62990;SDS011;49084;48.204;16.202;2022-08-21T04:08:24;4.47;;;3.90;;
62990;SDS011;49084;48.204;16.202;2022-08-21T04:10:51;4.30;;;3.63;;
62990;SDS011;49084;48.204;16.202;2022-08-21T04:13:19;4.18;;;3.78;;
62990;SDS011;49084;48.204;16.202;2022-08-21T04:15:45;4.60;;;4.20;;
62990;SDS011;49084;48.204;16.202;2022-08-21T04:18:11;4.78;;;4.38;;
62990;SDS011;49084;48.204;16.202;2022-08-21T04:20:37;4.10;;;3.80;;
62990;SDS011;49084;48.204;16.202;2022-08-21T04:23:03;4.57;;;3.83;;
62990;SDS011;49084;48.204;16.202;2022-08-21T04:25:29;4.35;;;3.95;;
62990;SDS011;49084;48.204;16.202;2022-08-21T04:27:55;4.38;;;3.97;;
62990;SDS011;49084;48.204;16.202;2022-08-21T04:30:21;4.45;;;4.05;;
62990;SDS011;49084;48.204;16.202;2022-08-21T04:32:47;4.15;;;3.83;;
62990;SDS011;49084;48.204;16.202;2022-08-21T04:35:16;4.93;;;4.53;;
62990;SDS011;49084;48.204;16.202;2022-08-21T04:37:44;6.28;;;4.68;;
62990;SDS011;49084;48.204;16.202;2022-08-21T04:40:11;3.97;;;3.65;;
62990;SDS011;49084;48.204;16.202;2022-08-21T04:42:42;4.65;;;3.90;;
62990;SDS011;49084;48.204;16.202;2022-08-21T04:47:49;4.22;;;3.83;;
62990;SDS011;49084;48.204;16.202;2022-08-21T04:50:16;3.67;;;3.38;;
62990;SDS011;49084;48.204;16.202;2022-08-21T04:52:42;4.22;;;3.83;;
62990;SDS011;49084;48.204;16.202;2022-08-21T04:55:08;3.72;;;3.42;;
62990;SDS011;49084;48.204;16.202;2022-08-21T04:57:34;4.72;;;4.32;;
62990;SDS011;49084;48.204;16.202;2022-08-21T05:00:00;3.78;;;3.40;;
62990;SDS011;49084;48.204;16.202;2022-08-21T05:02:28;4.10;;;3.80;;
62990;SDS011;49084;48.204;16.202;2022-08-21T05:07:25;4.65;;;3.95;;
62990;SDS011;49084;48.204;16.202;2022-08-21T05:09:52;5.13;;;4.63;;
62990;SDS011;49084;48.204;16.202;2022-08-21T05:12:19;6.90;;;5.20;;
62990;SDS011;49084;48.204;16.202;2022-08-21T05:14:44;5.60;;;5.10;;
62990;SDS011;49084;48.204;16.202;2022-08-21T05:17:10;5.65;;;5.13;;
62990;SDS011;49084;48.204;16.202;2022-08-21T05:19:36;5.47;;;4.97;;
62990;SDS011;49084;48.204;16.202;2022-08-21T05:22:01;5.47;;;4.97;;
62990;SDS011;49084;48.204;16.202;2022-08-21T05:24:27;5.70;;;4.68;;
62990;SDS011;49084;48.204;16.202;2022-08-21T05:26:53;5.00;;;4.60;;
62990;SDS011;49084;48.204;16.202;2022-08-21T05:29:19;5.88;;;4.60;;
62990;SDS011;49084;48.204;16.202;2022-08-21T05:31:46;5.40;;;4.90;;
62990;SDS011;49084;48.204;16.202;2022-08-21T05:34:13;4.55;;;4.15;;
62990;SDS011;49084;48.204;16.202;2022-08-21T05:36:40;4.53;;;3.65;;
62990;SDS011;49084;48.204;16.202;2022-08-21T05:39:05;4.40;;;4.00;;
62990;SDS011;49084;48.204;16.202;2022-08-21T05:41:31;4.70;;;4.05;;
62990;SDS011;49084;48.204;16.202;2022-08-21T05:43:57;4.28;;;3.92;;
62990;SDS011;49084;48.204;16.202;2022-08-21T05:46:22;4.45;;;4.05;;
62990;SDS011;49084;48.204;16.202;2022-08-21T05:48:48;4.55;;;4.15;;
62990;SDS011;49084;48.204;16.202;2022-08-21T05:51:14;3.53;;;3.22;;
62990;SDS011;49084;48.204;16.202;2022-08-21T05:53:41;3.40;;;3.10;;
62990;SDS011;49084;48.204;16.202;2022-08-21T05:56:08;4.30;;;3.30;;
62990;SDS011;49084;48.204;16.202;2022-08-21T05:58:34;3.95;;;3.55;;
62990;SDS011;49084;48.204;16.202;2022-08-21T06:01:01;3.80;;;3.50;;
62990;SDS011;49084;48.204;16.202;2022-08-21T06:03:29;3.90;;;3.60;;
62990;SDS011;49084;48.204;16.202;2022-08-21T06:05:58;3.67;;;3.40;;
62990;SDS011;49084;48.204;16.202;2022-08-21T06:08:24;6.13;;;3.95;;
62990;SDS011;49084;48.204;16.202;2022-08-21T06:10:50;3.50;;;3.20;;
62990;SDS011;49084;48.204;16.202;2022-08-21T06:13:17;3.63;;;3.33;;
62990;SDS011;49084;48.204;16.202;2022-08-21T06:15:44;3.83;;;3.42;;
62990;SDS011;49084;48.204;16.202;2022-08-21T06:18:10;3.60;;;3.30;;
62990;SDS011;49084;48.204;16.202;2022-08-21T06:20:36;3.83;;;3.53;;
62990;SDS011;49084;48.204;16.202;2022-08-21T06:23:03;3.75;;;3.20;;
62990;SDS011;49084;48.204;16.202;2022-08-21T06:25:29;3.80;;;3.03;;
62990;SDS011;49084;48.204;16.202;2022-08-21T06:28:05;3.75;;;3.45;;
62990;SDS011;49084;48.204;16.202;2022-08-21T06:30:32;4.13;;;3.60;;
62990;SDS011;49084;48.204;16.202;2022-08-21T06:32:58;3.70;;;3.40;;
62990;SDS011;49084;48.204;16.202;2022-08-21T06:35:24;4.10;;;3.80;;
62990;SDS011;49084;48.204;16.202;2022-08-21T06:37:50;4.10;;;3.80;;
62990;SDS011;49084;48.204;16.202;2022-08-21T06:40:17;4.60;;;4.20;;
62990;SDS011;49084;48.204;16.202;2022-08-21T06:42:42;4.57;;;4.18;;
62990;SDS011;49084;48.204;16.202;2022-08-21T06:45:08;4.47;;;4.07;;
62990;SDS011;49084;48.204;16.202;2022-08-21T06:47:34;4.55;;;4.15;;
62990;SDS011;49084;48.204;16.202;2022-08-21T06:50:00;5.07;;;4.60;;
62990;SDS011;49084;48.204;16.202;2022-08-21T06:52:25;4.40;;;4.05;;
62990;SDS011;49084;48.204;16.202;2022-08-21T06:54:51;4.35;;;3.95;;
62990;SDS011;49084;48.204;16.202;2022-08-21T06:57:17;5.13;;;4.40;;
62990;SDS011;49084;48.204;16.202;2022-08-21T06:59:42;4.35;;;3.95;;
62990;SDS011;49084;48.204;16.202;2022-08-21T07:02:08;4.90;;;4.50;;
62990;SDS011;49084;48.204;16.202;2022-08-21T07:04:34;4.43;;;4.03;;
62990;SDS011;49084;48.204;16.202;2022-08-21T07:06:59;6.50;;;4.32;;
62990;SDS011;49084;48.204;16.202;2022-08-21T07:09:25;4.57;;;4.18;;
62990;SDS011;49084;48.204;16.202;2022-08-21T07:11:52;5.05;;;4.60;;
62990;SDS011;49084;48.204;16.202;2022-08-21T07:14:19;4.38;;;4.07;;
62990;SDS011;49084;48.204;16.202;2022-08-21T07:16:46;7.30;;;3.97;;
62990;SDS011;49084;48.204;16.202;2022-08-21T07:19:12;5.07;;;4.57;;
62990;SDS011;49084;48.204;16.202;2022-08-21T07:21:37;4.55;;;4.15;;
62990;SDS011;49084;48.204;16.202;2022-08-21T07:24:03;5.20;;;4.70;;
62990;SDS011;49084;48.204;16.202;2022-08-21T07:26:29;4.70;;;4.28;;
62990;SDS011;49084;48.204;16.202;2022-08-21T07:28:54;4.50;;;4.10;;
62990;SDS011;49084;48.204;16.202;2022-08-21T07:31:21;6.88;;;4.22;;
62990;SDS011;49084;48.204;16.202;2022-08-21T07:33:47;5.55;;;4.78;;
62990;SDS011;49084;48.204;16.202;2022-08-21T07:36:13;5.60;;;4.75;;
62990;SDS011;49084;48.204;16.202;2022-08-21T07:38:39;4.93;;;4.53;;
62990;SDS011;49084;48.204;16.202;2022-08-21T07:41:15;5.20;;;4.63;;
62990;SDS011;49084;48.204;16.202;2022-08-21T07:43:43;16.08;;;5.80;;
62990;SDS011;49084;48.204;16.202;2022-08-21T07:46:09;8.13;;;4.80;;
62990;SDS011;49084;48.204;16.202;2022-08-21T07:48:35;4.78;;;4.15;;
62990;SDS011;49084;48.204;16.202;2022-08-21T07:51:02;3.83;;;3.53;;
62990;SDS011;49084;48.204;16.202;2022-08-21T07:53:32;4.63;;;4.22;;
62990;SDS011;49084;48.204;16.202;2022-08-21T07:55:58;5.20;;;4.30;;
62990;SDS011;49084;48.204;16.202;2022-08-21T07:58:24;4.68;;;4.28;;
62990;SDS011;49084;48.204;16.202;2022-08-21T08:00:50;3.65;;;3.35;;
62990;SDS011;49084;48.204;16.202;2022-08-21T08:03:15;4.68;;;3.53;;
62990;SDS011;49084;48.204;16.202;2022-08-21T08:05:41;3.33;;;2.65;;
62990;SDS011;49084;48.204;16.202;2022-08-21T08:08:08;3.88;;;3.58;;
62990;SDS011;49084;48.204;16.202;2022-08-21T08:10:33;3.95;;;3.65;;
62990;SDS011;49084;48.204;16.202;2022-08-21T08:13:00;3.72;;;3.20;;
62990;SDS011;49084;48.204;16.202;2022-08-21T08:15:27;3.67;;;3.38;;
62990;SDS011;49084;48.204;16.202;2022-08-21T08:17:53;4.50;;;3.13;;
62990;SDS011;49084;48.204;16.202;2022-08-21T08:20:20;3.22;;;2.92;;
62990;SDS011;49084;48.204;16.202;2022-08-21T08:22:47;5.07;;;3.38;;
62990;SDS011;49084;48.204;16.202;2022-08-21T08:25:14;2.83;;;2.63;;
62990;SDS011;49084;48.204;16.202;2022-08-21T08:27:41;4.78;;;2.97;;
62990;SDS011;49084;48.204;16.202;2022-08-21T08:30:08;3.20;;;3.00;;
62990;SDS011;49084;48.204;16.202;2022-08-21T08:32:35;3.73;;;3.43;;
62990;SDS011;49084;48.204;16.202;2022-08-21T08:35:01;9.90;;;3.08;;
62990;SDS011;49084;48.204;16.202;2022-08-21T08:37:28;3.80;;;3.50;;
62990;SDS011;49084;48.204;16.202;2022-08-21T08:39:53;3.70;;;3.40;;
62990;SDS011;49084;48.204;16.202;2022-08-21T08:44:50;4.32;;;3.85;;
62990;SDS011;49084;48.204;16.202;2022-08-21T08:47:30;4.53;;;4.13;;
62990;SDS011;49084;48.204;16.202;2022-08-21T08:52:33;4.65;;;4.25;;
62990;SDS011;49084;48.204;16.202;2022-08-21T08:55:08;3.75;;;3.45;;
62990;SDS011;49084;48.204;16.202;2022-08-21T08:57:37;4.13;;;3.83;;
62990;SDS011;49084;48.204;16.202;2022-08-21T09:00:07;4.43;;;4.03;;
62990;SDS011;49084;48.204;16.202;2022-08-21T09:02:37;4.80;;;4.13;;
62990;SDS011;49084;48.204;16.202;2022-08-21T09:05:04;4.80;;;4.40;;
62990;SDS011;49084;48.204;16.202;2022-08-21T09:07:42;3.92;;;3.60;;
62990;SDS011;49084;48.204;16.202;2022-08-21T09:10:45;5.63;;;4.32;;
62990;SDS011;49084;48.204;16.202;2022-08-21T09:13:32;5.63;;;4.15;;
62990;SDS011;49084;48.204;16.202;2022-08-21T09:16:07;4.30;;;4.00;;
62990;SDS011;49084;48.204;16.202;2022-08-21T09:27:18;3.35;;;3.15;;
62990;SDS011;49084;48.204;16.202;2022-08-21T09:29:46;3.50;;;3.20;;
62990;SDS011;49084;48.204;16.202;2022-08-21T09:32:20;3.60;;;3.30;;
62990;SDS011;49084;48.204;16.202;2022-08-21T09:34:57;3.05;;;2.85;;
62990;SDS011;49084;48.204;16.202;2022-08-21T09:37:27;3.10;;;2.90;;
62990;SDS011;49084;48.204;16.202;2022-08-21T09:39:55;3.43;;;3.13;;
62990;SDS011;49084;48.204;16.202;2022-08-21T09:42:26;3.83;;;3.53;;
62990;SDS011;49084;48.204;16.202;2022-08-21T09:45:10;3.45;;;3.03;;
62990;SDS011;49084;48.204;16.202;2022-08-21T09:47:38;4.28;;;3.88;;
62990;SDS011;49084;48.204;16.202;2022-08-21T09:50:24;3.65;;;3.35;;
62990;SDS011;49084;48.204;16.202;2022-08-21T09:52:53;5.18;;;3.78;;
62990;SDS011;49084;48.204;16.202;2022-08-21T09:55:55;4.35;;;3.42;;
62990;SDS011;49084;48.204;16.202;2022-08-21T09:58:37;4.15;;;3.80;;
62990;SDS011;49084;48.204;16.202;2022-08-21T10:01:05;3.47;;;3.17;;
62990;SDS011;49084;48.204;16.202;2022-08-21T10:03:32;3.70;;;3.40;;
62990;SDS011;49084;48.204;16.202;2022-08-21T10:05:59;3.97;;;3.67;;
62990;SDS011;49084;48.204;16.202;2022-08-21T10:08:31;3.92;;;3.63;;
62990;SDS011;49084;48.204;16.202;2022-08-21T10:11:02;4.18;;;3.65;;
62990;SDS011;49084;48.204;16.202;2022-08-21T10:16:15;8.73;;;4.43;;
62990;SDS011;49084;48.204;16.202;2022-08-21T10:34:38;5.03;;;4.30;;
62990;SDS011;49084;48.204;16.202;2022-08-21T10:40:08;4.40;;;4.00;;
62990;SDS011;49084;48.204;16.202;2022-08-21T10:45:52;4.93;;;4.38;;
62990;SDS011;49084;48.204;16.202;2022-08-21T10:48:32;4.65;;;4.30;;
62990;SDS011;49084;48.204;16.202;2022-08-21T10:51:20;7.35;;;4.40;;
62990;SDS011;49084;48.204;16.202;2022-08-21T10:56:55;3.75;;;3.38;;
62990;SDS011;49084;48.204;16.202;2022-08-21T10:59:28;7.78;;;3.20;;
62990;SDS011;49084;48.204;16.202;2022-08-21T11:02:08;2.47;;;2.35;;
62990;SDS011;49084;48.204;16.202;2022-08-21T11:04:57;3.03;;;2.83;;
62990;SDS011;49084;48.204;16.202;2022-08-21T11:07:31;3.78;;;3.03;;
62990;SDS011;49084;48.204;16.202;2022-08-21T11:12:50;2.70;;;2.50;;
62990;SDS011;49084;48.204;16.202;2022-08-21T11:15:43;3.20;;;2.75;;
62990;SDS011;49084;48.204;16.202;2022-08-21T11:21:04;2.92;;;2.72;;
62990;SDS011;49084;48.204;16.202;2022-08-21T11:26:08;2.42;;;2.22;;
62990;SDS011;49084;48.204;16.202;2022-08-21T11:29:05;2.97;;;2.20;;
62990;SDS011;49084;48.204;16.202;2022-08-21T11:31:53;2.72;;;2.53;;
62990;SDS011;49084;48.204;16.202;2022-08-21T11:34:35;2.05;;;1.85;;
62990;SDS011;49084;48.204;16.202;2022-08-21T11:37:11;1.73;;;1.65;;
62990;SDS011;49084;48.204;16.202;2022-08-21T11:39:57;1.85;;;1.70;;
62990;SDS011;49084;48.204;16.202;2022-08-21T11:42:37;1.73;;;1.63;;
62990;SDS011;49084;48.204;16.202;2022-08-21T11:45:32;2.20;;;1.70;;
62990;SDS011;49084;48.204;16.202;2022-08-21T11:48:47;4.67;;;1.67;;
62990;SDS011;49084;48.204;16.202;2022-08-21T11:50:58;1.52;;;1.42;;
62990;SDS011;49084;48.204;16.202;2022-08-21T11:53:30;6.40;;;2.13;;
62990;SDS011;49084;48.204;16.202;2022-08-21T11:56:12;1.60;;;1.50;;
62990;SDS011;49084;48.204;16.202;2022-08-21T11:58:45;1.70;;;1.60;;
62990;SDS011;49084;48.204;16.202;2022-08-21T12:01:19;1.48;;;1.38;;
62990;SDS011;49084;48.204;16.202;2022-08-21T12:03:55;0.98;;;0.98;;
62990;SDS011;49084;48.204;16.202;2022-08-21T12:06:38;4.00;;;1.02;;
62990;SDS011;49084;48.204;16.202;2022-08-21T12:09:51;1.35;;;1.35;;
62990;SDS011;49084;48.204;16.202;2022-08-21T12:12:10;1.45;;;1.35;;
62990;SDS011;49084;48.204;16.202;2022-08-21T12:17:52;1.70;;;1.60;;
62990;SDS011;49084;48.204;16.202;2022-08-21T12:23:05;3.75;;;1.83;;
62990;SDS011;49084;48.204;16.202;2022-08-21T12:25:38;2.28;;;1.77;;
62990;SDS011;49084;48.204;16.202;2022-08-21T12:28:08;2.05;;;1.85;;
62990;SDS011;49084;48.204;16.202;2022-08-21T12:30:43;5.28;;;3.65;;
62990;SDS011;49084;48.204;16.202;2022-08-21T12:33:31;2.30;;;2.10;;
62990;SDS011;49084;48.204;16.202;2022-08-21T12:39:12;7.53;;;2.53;;
62990;SDS011;49084;48.204;16.202;2022-08-21T12:44:17;3.20;;;2.63;;
62990;SDS011;49084;48.204;16.202;2022-08-21T12:46:56;2.70;;;2.50;;
62990;SDS011;49084;48.204;16.202;2022-08-21T12:49:32;4.57;;;2.65;;
62990;SDS011;49084;48.204;16.202;2022-08-21T12:52:22;4.05;;;2.90;;
62990;SDS011;49084;48.204;16.202;2022-08-21T12:54:54;3.97;;;3.58;;
62990;SDS011;49084;48.204;16.202;2022-08-21T13:00:03;3.42;;;3.13;;
62990;SDS011;49084;48.204;16.202;2022-08-21T13:05:07;3.72;;;3.28;;
62990;SDS011;49084;48.204;16.202;2022-08-21T13:07:42;5.40;;;3.72;;
62990;SDS011;49084;48.204;16.202;2022-08-21T13:10:32;3.97;;;3.65;;
62990;SDS011;49084;48.204;16.202;2022-08-21T13:12:58;4.43;;;3.63;;
62990;SDS011;49084;48.204;16.202;2022-08-21T13:15:34;4.43;;;3.80;;
62990;SDS011;49084;48.204;16.202;2022-08-21T13:18:01;5.03;;;4.57;;
62990;SDS011;49084;48.204;16.202;2022-08-21T13:20:32;4.85;;;4.20;;
62990;SDS011;49084;48.204;16.202;2022-08-21T13:23:03;5.47;;;4.68;;
62990;SDS011;49084;48.204;16.202;2022-08-21T13:25:36;4.55;;;4.18;;
62990;SDS011;49084;48.204;16.202;2022-08-21T13:28:10;4.13;;;3.83;;
62990;SDS011;49084;48.204;16.202;2022-08-21T13:30:46;4.68;;;3.78;;
62990;SDS011;49084;48.204;16.202;2022-08-21T13:33:15;3.78;;;3.47;;
62990;SDS011;49084;48.204;16.202;2022-08-21T13:38:16;4.22;;;3.65;;
62990;SDS011;49084;48.204;16.202;2022-08-21T13:40:49;5.85;;;3.67;;
62990;SDS011;49084;48.204;16.202;2022-08-21T13:43:21;4.53;;;3.80;;
62990;SDS011;49084;48.204;16.202;2022-08-21T13:45:53;6.20;;;4.03;;
62990;SDS011;49084;48.204;16.202;2022-08-21T13:48:21;6.05;;;4.32;;
62990;SDS011;49084;48.204;16.202;2022-08-21T13:50:50;4.50;;;3.95;;
62990;SDS011;49084;48.204;16.202;2022-08-21T13:55:54;5.15;;;4.13;;
62990;SDS011;49084;48.204;16.202;2022-08-21T13:58:27;8.98;;;4.32;;
62990;SDS011;49084;48.204;16.202;2022-08-21T14:01:22;3.72;;;3.40;;
62990;SDS011;49084;48.204;16.202;2022-08-21T14:04:01;4.07;;;3.40;;
62990;SDS011;49084;48.204;16.202;2022-08-21T14:06:45;3.58;;;3.28;;
62990;SDS011;49084;48.204;16.202;2022-08-21T14:09:34;6.72;;;4.10;;
62990;SDS011;49084;48.204;16.202;2022-08-21T14:12:01;4.82;;;3.85;;
62990;SDS011;49084;48.204;16.202;2022-08-21T14:14:37;5.63;;;3.30;;
62990;SDS011;49084;48.204;16.202;2022-08-21T14:17:06;3.72;;;3.00;;
62990;SDS011;49084;48.204;16.202;2022-08-21T14:19:38;4.28;;;3.58;;
62990;SDS011;49084;48.204;16.202;2022-08-21T14:25:42;4.22;;;3.83;;
62990;SDS011;49084;48.204;16.202;2022-08-21T14:27:50;3.50;;;3.20;;
62990;SDS011;49084;48.204;16.202;2022-08-21T14:30:34;3.40;;;3.05;;
62990;SDS011;49084;48.204;16.202;2022-08-21T14:33:08;3.55;;;3.30;;
62990;SDS011;49084;48.204;16.202;2022-08-21T14:35:35;3.90;;;3.38;;
62990;SDS011;49084;48.204;16.202;2022-08-21T14:38:01;5.22;;;3.38;;
62990;SDS011;49084;48.204;16.202;2022-08-21T14:40:35;4.50;;;3.40;;
62990;SDS011;49084;48.204;16.202;2022-08-21T14:43:01;4.93;;;3.60;;
62990;SDS011;49084;48.204;16.202;2022-08-21T14:45:28;5.95;;;4.03;;
62990;SDS011;49084;48.204;16.202;2022-08-21T14:47:55;5.13;;;3.17;;
62990;SDS011;49084;48.204;16.202;2022-08-21T14:50:21;4.70;;;3.85;;
62990;SDS011;49084;48.204;16.202;2022-08-21T14:52:47;4.47;;;3.70;;
62990;SDS011;49084;48.204;16.202;2022-08-21T14:55:14;5.28;;;3.92;;
62990;SDS011;49084;48.204;16.202;2022-08-21T14:57:41;5.22;;;3.50;;
62990;SDS011;49084;48.204;16.202;2022-08-21T15:00:10;5.20;;;3.50;;
62990;SDS011;49084;48.204;16.202;2022-08-21T15:02:37;5.20;;;3.88;;
62990;SDS011;49084;48.204;16.202;2022-08-21T15:05:03;6.43;;;3.92;;
62990;SDS011;49084;48.204;16.202;2022-08-21T15:07:29;7.20;;;4.50;;
62990;SDS011;49084;48.204;16.202;2022-08-21T15:09:55;4.70;;;4.30;;
62990;SDS011;49084;48.204;16.202;2022-08-21T15:12:21;4.10;;;3.70;;
62990;SDS011;49084;48.204;16.202;2022-08-21T15:14:48;6.68;;;4.75;;
62990;SDS011;49084;48.204;16.202;2022-08-21T15:17:13;4.88;;;3.83;;
62990;SDS011;49084;48.204;16.202;2022-08-21T15:19:39;5.25;;;4.30;;
62990;SDS011;49084;48.204;16.202;2022-08-21T15:22:06;6.55;;;4.38;;
62990;SDS011;49084;48.204;16.202;2022-08-21T15:24:31;6.28;;;4.95;;
62990;SDS011;49084;48.204;16.202;2022-08-21T15:26:58;6.18;;;3.72;;
62990;SDS011;49084;48.204;16.202;2022-08-21T15:29:26;4.43;;;3.65;;
62990;SDS011;49084;48.204;16.202;2022-08-21T15:31:56;6.60;;;4.00;;
62990;SDS011;49084;48.204;16.202;2022-08-21T15:34:24;4.53;;;4.07;;
62990;SDS011;49084;48.204;16.202;2022-08-21T15:36:52;6.07;;;4.07;;
62990;SDS011;49084;48.204;16.202;2022-08-21T15:39:18;6.88;;;4.00;;
62990;SDS011;49084;48.204;16.202;2022-08-21T15:41:44;5.13;;;3.70;;
62990;SDS011;49084;48.204;16.202;2022-08-21T15:44:10;7.95;;;3.17;;
62990;SDS011;49084;48.204;16.202;2022-08-21T15:46:38;3.72;;;3.45;;
62990;SDS011;49084;48.204;16.202;2022-08-21T15:49:04;3.90;;;3.55;;
62990;SDS011;49084;48.204;16.202;2022-08-21T15:51:30;3.72;;;3.40;;
62990;SDS011;49084;48.204;16.202;2022-08-21T15:53:57;4.93;;;3.67;;
62990;SDS011;49084;48.204;16.202;2022-08-21T15:56:28;6.07;;;3.90;;
62990;SDS011;49084;48.204;16.202;2022-08-21T15:59:02;6.72;;;4.10;;
62990;SDS011;49084;48.204;16.202;2022-08-21T16:01:33;4.13;;;3.67;;
62990;SDS011;49084;48.204;16.202;2022-08-21T16:04:00;5.88;;;4.35;;
62990;SDS011;49084;48.204;16.202;2022-08-21T16:06:27;5.82;;;4.90;;
62990;SDS011;49084;48.204;16.202;2022-08-21T16:08:53;5.63;;;5.10;;